createdAt,value
2019-05-30T00:01:42.040Z,3.50
2019-05-30T00:04:10.466Z,3.55
2019-05-30T00:06:38.925Z,3.77
2019-05-30T00:09:09.071Z,3.77
2019-05-30T00:11:37.850Z,3.50
2019-05-30T00:14:06.358Z,3.58
2019-05-30T00:16:40.963Z,3.62
2019-05-30T00:19:09.394Z,4.20
2019-05-30T00:21:38.147Z,3.85
2019-05-30T00:24:08.314Z,3.62
2019-05-30T00:26:37.261Z,3.70
2019-05-30T00:29:06.686Z,4.05
2019-05-30T00:31:35.225Z,4.28
2019-05-30T00:34:04.239Z,3.92
2019-05-30T00:36:32.962Z,3.47
2019-05-30T00:39:03.911Z,3.92
2019-05-30T00:41:32.777Z,3.72
2019-05-30T00:44:02.131Z,3.75
2019-05-30T00:46:30.743Z,3.47
2019-05-30T00:49:00.177Z,3.47
2019-05-30T00:51:28.798Z,3.65
2019-05-30T00:53:58.622Z,3.85
2019-05-30T00:56:27.376Z,3.80
2019-05-30T00:58:56.476Z,3.95
2019-05-30T01:01:25.194Z,4.30
2019-05-30T01:03:54.650Z,4.08
2019-05-30T01:06:23.128Z,4.42
2019-05-30T01:08:51.583Z,4.20
2019-05-30T01:11:20.007Z,4.90
2019-05-30T01:13:49.635Z,4.53
2019-05-30T01:16:18.482Z,4.50
2019-05-30T01:18:47.597Z,4.62
2019-05-30T01:21:16.858Z,4.78
2019-05-30T01:23:46.149Z,4.95
2019-05-30T01:26:14.920Z,5.03
2019-05-30T01:28:48.792Z,4.90
2019-05-30T01:31:17.741Z,5.12
2019-05-30T01:33:46.182Z,4.87
2019-05-30T01:36:14.907Z,5.22
2019-05-30T01:38:43.693Z,4.53
2019-05-30T01:41:12.124Z,4.87
2019-05-30T01:43:40.572Z,4.35
2019-05-30T01:46:09.000Z,4.65
2019-05-30T01:48:37.737Z,5.08
2019-05-30T01:51:06.563Z,5.00
2019-05-30T01:53:35.567Z,5.00
2019-05-30T01:56:04.800Z,5.05
2019-05-30T01:58:33.736Z,4.35
2019-05-30T02:01:17.074Z,4.78
2019-05-30T02:03:32.331Z,4.80
2019-05-30T02:06:01.029Z,4.50
2019-05-30T02:08:29.666Z,4.90
2019-05-30T02:10:59.183Z,4.90
2019-05-30T02:13:28.135Z,4.40
2019-05-30T02:15:57.140Z,4.33
2019-05-30T02:18:25.926Z,4.53
2019-05-30T02:20:54.342Z,4.75
2019-05-30T02:23:23.116Z,4.42
2019-05-30T02:25:51.873Z,4.28
2019-05-30T02:28:20.671Z,4.33
2019-05-30T02:30:49.087Z,4.28
2019-05-30T02:33:17.536Z,4.40
2019-05-30T02:35:45.953Z,4.25
2019-05-30T02:38:23.274Z,4.15
2019-05-30T02:40:51.697Z,4.15
2019-05-30T02:43:20.142Z,4.30
2019-05-30T02:45:48.873Z,4.22
2019-05-30T02:48:17.667Z,4.03
2019-05-30T02:50:46.088Z,4.03
2019-05-30T02:53:14.528Z,4.05
2019-05-30T02:55:43.890Z,4.17
2019-05-30T02:58:13.327Z,4.10
2019-05-30T03:00:41.922Z,3.50
2019-05-30T03:03:14.244Z,4.15
2019-05-30T03:05:43.528Z,3.90
2019-05-30T03:08:14.265Z,4.50
2019-05-30T03:10:42.741Z,4.45
2019-05-30T03:13:12.878Z,3.37
2019-05-30T03:15:42.073Z,3.87
2019-05-30T03:18:12.806Z,3.37
2019-05-30T03:20:40.872Z,3.60
2019-05-30T03:23:10.417Z,3.87
2019-05-30T03:25:39.630Z,3.20
2019-05-30T03:28:09.058Z,3.70
2019-05-30T03:30:38.909Z,3.62
2019-05-30T03:33:24.320Z,3.85
2019-05-30T03:35:42.850Z,3.60
2019-05-30T03:38:10.478Z,3.52
2019-05-30T03:40:38.707Z,3.50
2019-05-30T03:43:09.208Z,3.40
2019-05-30T03:45:58.678Z,3.70
2019-05-30T03:48:29.051Z,3.50
2019-05-30T03:51:18.347Z,3.27
2019-05-30T03:53:47.546Z,3.47
2019-05-30T03:56:19.072Z,3.45
2019-05-30T03:58:59.649Z,3.10
2019-05-30T04:01:54.053Z,3.02
2019-05-30T04:04:49.862Z,3.40
2019-05-30T04:07:23.637Z,2.70
2019-05-30T04:10:13.487Z,2.70
2019-05-30T04:13:03.336Z,2.98
2019-05-30T04:15:33.283Z,2.30
2019-05-30T04:18:02.280Z,2.80
2019-05-30T04:20:31.974Z,2.80
2019-05-30T04:23:00.843Z,2.80
2019-05-30T04:25:29.288Z,2.55
2019-05-30T04:27:58.034Z,2.50
2019-05-30T04:30:26.516Z,2.50
2019-05-30T04:33:21.068Z,2.35
2019-05-30T04:35:37.071Z,2.40
2019-05-30T04:38:05.602Z,2.50
2019-05-30T04:40:34.103Z,2.40
2019-05-30T04:43:02.545Z,2.58
2019-05-30T04:45:30.998Z,2.40
2019-05-30T04:47:59.812Z,2.45
2019-05-30T04:50:28.291Z,2.30
2019-05-30T04:52:56.786Z,2.17
2019-05-30T04:55:25.200Z,1.95
2019-05-30T04:57:53.902Z,2.08
2019-05-30T05:00:22.606Z,2.15
2019-05-30T05:02:51.045Z,2.17
2019-05-30T05:05:25.950Z,1.85
2019-05-30T05:07:50.613Z,2.27
2019-05-30T05:10:20.436Z,2.00
2019-05-30T05:12:48.992Z,1.82
2019-05-30T05:15:18.674Z,2.00
2019-05-30T05:17:47.284Z,1.95
2019-05-30T05:20:17.248Z,1.70
2019-05-30T05:22:45.773Z,2.10
2019-05-30T05:25:15.418Z,2.10
2019-05-30T05:27:44.011Z,1.98
2019-05-30T05:30:14.416Z,2.00
2019-05-30T05:32:43.188Z,2.10
2019-05-30T05:35:11.932Z,2.05
2019-05-30T05:37:40.648Z,2.30
2019-05-30T05:40:09.150Z,1.82
2019-05-30T05:42:37.598Z,2.60
2019-05-30T05:45:10.733Z,2.00
2019-05-30T05:47:39.180Z,2.43
2019-05-30T05:50:08.178Z,2.27
2019-05-30T05:52:36.620Z,2.10
2019-05-30T05:55:06.224Z,2.12
2019-05-30T05:57:35.925Z,2.70
2019-05-30T06:00:06.888Z,2.40
2019-05-30T06:02:35.652Z,2.30
2019-05-30T06:05:07.216Z,2.27
2019-05-30T06:07:35.660Z,2.22
2019-05-30T06:10:24.251Z,2.50
2019-05-30T06:12:53.029Z,2.77
2019-05-30T06:15:22.936Z,2.37
2019-05-30T06:17:51.950Z,2.47
2019-05-30T06:20:43.560Z,2.58
2019-05-30T06:23:13.273Z,2.67
2019-05-30T06:25:41.706Z,2.60
2019-05-30T06:28:10.154Z,2.40
2019-05-30T06:30:38.596Z,2.37
2019-05-30T06:33:07.041Z,2.45
2019-05-30T06:35:36.472Z,2.33
2019-05-30T06:38:05.167Z,2.50
2019-05-30T06:40:35.665Z,2.35
2019-05-30T06:43:04.147Z,2.75
2019-05-30T06:45:32.660Z,2.58
2019-05-30T06:48:01.099Z,2.58
2019-05-30T06:50:30.915Z,2.87
2019-05-30T06:52:59.564Z,2.75
2019-05-30T06:55:29.412Z,3.05
2019-05-30T06:57:58.074Z,2.70
2019-05-30T07:00:28.007Z,2.72
2019-05-30T07:02:56.611Z,2.72
2019-05-30T07:05:28.510Z,2.27
2019-05-30T07:07:57.188Z,2.58
2019-05-30T07:10:26.789Z,2.30
2019-05-30T07:12:55.366Z,2.98
2019-05-30T07:15:25.060Z,2.75
2019-05-30T07:17:53.678Z,2.45
2019-05-30T07:20:24.000Z,2.10
2019-05-30T07:22:52.802Z,2.22
2019-05-30T07:25:21.670Z,2.70
2019-05-30T07:27:50.386Z,2.55
2019-05-30T07:30:20.408Z,2.70
2019-05-30T07:32:48.853Z,2.20
2019-05-30T07:35:17.904Z,2.85
2019-05-30T07:37:46.898Z,2.70
2019-05-30T07:40:19.481Z,2.65
2019-05-30T07:42:46.224Z,2.20
2019-05-30T07:45:15.384Z,3.77
2019-05-30T07:47:44.095Z,2.17
2019-05-30T07:50:12.808Z,2.20
2019-05-30T07:52:50.069Z,2.20
2019-05-30T07:55:18.577Z,2.17
2019-05-30T07:57:47.912Z,2.10
2019-05-30T08:00:35.710Z,3.70
2019-05-30T08:03:04.285Z,3.45
2019-05-30T08:05:32.783Z,2.20
2019-05-30T08:08:02.568Z,1.90
2019-05-30T08:10:31.999Z,3.30
2019-05-30T08:13:00.979Z,2.70
2019-05-30T08:15:29.545Z,2.40
2019-05-30T08:17:58.366Z,2.20
2019-05-30T08:20:27.645Z,2.25
2019-05-30T08:22:56.208Z,2.30
2019-05-30T08:25:24.942Z,2.00
2019-05-30T08:27:53.368Z,2.10
2019-05-30T08:30:22.314Z,1.90
2019-05-30T08:32:50.755Z,1.92
2019-05-30T08:35:19.907Z,2.17
2019-05-30T08:37:48.332Z,2.15
2019-05-30T08:40:16.843Z,2.10
2019-05-30T08:42:45.292Z,2.20
2019-05-30T08:45:16.690Z,1.80
2019-05-30T08:47:45.147Z,2.10
2019-05-30T08:50:14.616Z,1.87
2019-05-30T08:52:43.041Z,2.08
2019-05-30T08:55:11.922Z,2.05
2019-05-30T08:57:41.012Z,2.10
2019-05-30T09:00:12.299Z,1.77
2019-05-30T09:02:41.050Z,1.92
2019-05-30T09:05:10.747Z,2.00
2019-05-30T09:07:40.206Z,1.75
2019-05-30T09:10:10.308Z,2.17
2019-05-30T09:12:41.000Z,2.25
2019-05-30T09:15:14.115Z,2.10
2019-05-30T09:17:44.608Z,2.10
2019-05-30T09:20:14.088Z,2.35
2019-05-30T09:22:43.733Z,2.20
2019-05-30T09:25:13.339Z,2.72
2019-05-30T09:27:42.949Z,2.30
2019-05-30T09:30:13.783Z,2.20
2019-05-30T09:32:43.189Z,2.17
2019-05-30T09:35:13.232Z,2.62
2019-05-30T09:37:42.482Z,2.33
2019-05-30T09:40:32.876Z,2.22
2019-05-30T09:43:01.331Z,2.30
2019-05-30T09:45:30.202Z,2.40
2019-05-30T09:47:58.634Z,2.22
2019-05-30T09:50:27.969Z,2.30
2019-05-30T09:52:56.416Z,2.45
2019-05-30T09:55:25.208Z,2.20
2019-05-30T09:57:53.683Z,2.40
2019-05-30T10:00:24.126Z,2.10
2019-05-30T10:02:52.715Z,2.22
2019-05-30T10:05:24.460Z,2.27
2019-05-30T10:07:52.996Z,2.00
2019-05-30T10:10:22.340Z,2.80
2019-05-30T10:12:50.776Z,2.83
2019-05-30T10:15:20.441Z,2.40
2019-05-30T10:17:51.784Z,2.20
2019-05-30T10:20:20.061Z,2.15
2019-05-30T10:22:50.807Z,2.47
2019-05-30T10:25:20.701Z,2.27
2019-05-30T10:27:52.155Z,2.35
2019-05-30T10:30:21.432Z,2.40
2019-05-30T10:32:51.886Z,2.05
2019-05-30T10:35:21.687Z,2.30
2019-05-30T10:37:50.945Z,2.35
2019-05-30T10:40:20.076Z,2.30
2019-05-30T10:42:49.591Z,2.20
2019-05-30T10:45:20.791Z,2.58
2019-05-30T10:47:51.389Z,2.30
2019-05-30T10:50:20.356Z,2.20
2019-05-30T10:52:49.496Z,2.40
2019-05-30T10:55:19.409Z,2.80
2019-05-30T10:57:48.622Z,2.30
2019-05-30T11:00:21.335Z,2.70
2019-05-30T11:02:51.084Z,2.30
2019-05-30T11:05:20.315Z,2.40
2019-05-30T11:08:06.111Z,2.47
2019-05-30T11:10:40.670Z,2.20
2019-05-30T11:13:11.933Z,2.30
2019-05-30T11:15:40.352Z,2.35
2019-05-30T11:18:08.952Z,2.27
2019-05-30T11:20:37.830Z,2.95
2019-05-30T11:23:06.589Z,2.52
2019-05-30T11:25:35.472Z,2.15
2019-05-30T11:28:05.358Z,2.42
2019-05-30T11:30:33.860Z,2.27
2019-05-30T11:33:10.430Z,2.40
2019-05-30T11:35:39.184Z,3.00
2019-05-30T11:38:07.621Z,2.90
2019-05-30T11:40:37.009Z,2.80
2019-05-30T11:43:05.456Z,2.65
2019-05-30T11:45:34.317Z,2.52
2019-05-30T11:48:02.828Z,2.00
2019-05-30T11:50:31.497Z,3.10
2019-05-30T11:53:00.238Z,2.25
2019-05-30T11:55:48.181Z,2.37
2019-05-30T11:58:19.606Z,2.27
2019-05-30T12:00:47.168Z,2.40
2019-05-30T12:03:15.971Z,2.25
2019-05-30T12:05:45.362Z,2.20
2019-05-30T12:08:14.172Z,2.05
2019-05-30T12:10:42.605Z,2.20
2019-05-30T12:13:11.054Z,2.67
2019-05-30T12:15:39.811Z,2.20
2019-05-30T12:18:08.504Z,2.40
2019-05-30T12:20:36.965Z,2.42
2019-05-30T12:23:05.453Z,2.37
2019-05-30T12:25:33.889Z,2.20
2019-05-30T12:28:04.109Z,2.20
2019-05-30T12:30:32.657Z,2.30
2019-05-30T12:33:02.477Z,1.90
2019-05-30T12:35:32.304Z,2.35
2019-05-30T12:38:05.056Z,2.17
2019-05-30T12:40:31.933Z,1.98
2019-05-30T12:43:03.064Z,1.87
2019-05-30T12:45:31.212Z,2.20
2019-05-30T12:47:59.723Z,2.35
2019-05-30T12:50:28.233Z,2.30
2019-05-30T12:52:57.605Z,2.60
2019-05-30T12:55:26.266Z,2.15
2019-05-30T12:57:54.796Z,2.15
2019-05-30T13:00:28.967Z,2.10
2019-05-30T13:02:57.404Z,2.08
2019-05-30T13:05:26.208Z,2.00
2019-05-30T13:08:12.065Z,1.95
2019-05-30T13:10:25.977Z,2.00
2019-05-30T13:12:55.542Z,2.27
2019-05-30T13:15:25.926Z,2.35
2019-05-30T13:17:55.740Z,2.30
2019-05-30T13:20:24.816Z,2.27
2019-05-30T13:22:53.688Z,2.40
2019-05-30T13:25:23.206Z,2.08
2019-05-30T13:27:51.893Z,2.17
2019-05-30T13:30:21.118Z,1.90
2019-05-30T13:32:51.571Z,2.15
2019-05-30T13:35:20.612Z,2.45
2019-05-30T13:37:49.332Z,1.87
2019-05-30T13:40:24.986Z,2.30
2019-05-30T13:42:48.647Z,2.20
2019-05-30T13:45:17.733Z,2.30
2019-05-30T13:47:46.241Z,2.05
2019-05-30T13:50:16.263Z,2.10
2019-05-30T13:52:45.001Z,2.30
2019-05-30T13:55:13.847Z,2.27
2019-05-30T13:57:42.359Z,2.05
2019-05-30T14:00:13.208Z,2.05
2019-05-30T14:02:42.111Z,2.00
2019-05-30T14:05:12.253Z,1.98
2019-05-30T14:07:40.685Z,2.15
2019-05-30T14:10:10.766Z,1.90
2019-05-30T14:12:39.744Z,1.85
2019-05-30T14:15:14.443Z,1.90
2019-05-30T14:17:50.378Z,1.85
2019-05-30T14:20:19.757Z,1.92
2019-05-30T14:22:48.203Z,2.20
2019-05-30T14:25:17.237Z,2.05
2019-05-30T14:27:45.936Z,2.00
2019-05-30T14:30:14.708Z,2.05
2019-05-30T14:32:43.136Z,1.85
2019-05-30T14:35:13.928Z,1.85
2019-05-30T14:37:42.832Z,2.08
2019-05-30T14:40:16.200Z,2.10
2019-05-30T14:42:44.717Z,2.00
2019-05-30T14:45:16.835Z,2.05
2019-05-30T14:47:45.412Z,1.98
2019-05-30T14:50:14.682Z,2.05
2019-05-30T14:52:43.370Z,2.40
2019-05-30T14:55:14.397Z,1.92
2019-05-30T14:57:42.844Z,2.00
2019-05-30T15:00:17.920Z,1.92
2019-05-30T15:02:47.748Z,2.10
2019-05-30T15:05:23.101Z,1.92
2019-05-30T15:07:51.553Z,2.10
2019-05-30T15:10:20.340Z,2.25
2019-05-30T15:12:49.057Z,1.82
2019-05-30T15:15:18.912Z,2.00
2019-05-30T15:17:48.428Z,2.00
2019-05-30T15:20:18.408Z,1.98
2019-05-30T15:22:47.759Z,2.00
2019-05-30T15:25:17.967Z,1.90
2019-05-30T15:28:06.044Z,2.20
2019-05-30T15:30:34.610Z,2.08
2019-05-30T15:33:03.859Z,2.40
2019-05-30T15:35:33.104Z,2.10
2019-05-30T15:38:01.689Z,2.20
2019-05-30T15:40:30.452Z,2.22
2019-05-30T15:43:00.960Z,2.20
2019-05-30T15:45:29.133Z,2.17
2019-05-30T15:47:57.643Z,2.10
2019-05-30T15:50:26.219Z,2.22
2019-05-30T15:52:54.941Z,2.37
2019-05-30T15:55:24.940Z,1.98
2019-05-30T15:57:53.389Z,1.82
2019-05-30T16:00:22.691Z,1.80
2019-05-30T16:02:52.246Z,2.02
2019-05-30T16:05:21.432Z,2.40
2019-05-30T16:07:50.226Z,2.08
2019-05-30T16:10:28.074Z,1.92
2019-05-30T16:12:56.812Z,2.27
2019-05-30T16:15:25.269Z,2.20
2019-05-30T16:17:53.709Z,2.25
2019-05-30T16:20:22.139Z,2.40
2019-05-30T16:22:50.987Z,2.12
2019-05-30T16:25:19.780Z,2.02
2019-05-30T16:27:48.348Z,2.33
2019-05-30T16:30:22.021Z,2.33
2019-05-30T16:32:49.133Z,2.22
2019-05-30T16:35:20.468Z,2.50
2019-05-30T16:37:49.797Z,2.58
2019-05-30T16:40:18.452Z,2.50
2019-05-30T16:42:46.964Z,2.42
2019-05-30T16:45:20.223Z,2.27
2019-05-30T16:47:49.209Z,2.72
2019-05-30T16:50:18.949Z,2.35
2019-05-30T16:52:47.470Z,2.20
2019-05-30T16:55:17.094Z,2.87
2019-05-30T16:57:45.741Z,2.60
2019-05-30T17:00:15.679Z,2.75
2019-05-30T17:02:45.452Z,2.90
2019-05-30T17:05:18.354Z,2.80
2019-05-30T17:07:48.606Z,3.77
2019-05-30T17:10:23.306Z,3.72
2019-05-30T17:12:48.018Z,4.53
2019-05-30T17:15:17.668Z,4.25
2019-05-30T17:17:51.062Z,4.47
2019-05-30T17:20:20.542Z,4.40
2019-05-30T17:22:49.253Z,4.62
2019-05-30T17:25:19.054Z,4.70
2019-05-30T17:27:47.616Z,4.37
2019-05-30T17:30:17.495Z,4.55
2019-05-30T17:32:46.333Z,4.80
2019-05-30T17:35:15.604Z,4.78
2019-05-30T17:37:44.311Z,4.75
2019-05-30T17:40:13.980Z,4.67
2019-05-30T17:42:44.764Z,4.40
2019-05-30T17:45:13.959Z,4.95
2019-05-30T17:47:42.572Z,5.92
2019-05-30T17:50:13.282Z,9.45
2019-05-30T17:52:42.084Z,12.53
2019-05-30T17:55:12.628Z,7.12
2019-05-30T17:57:42.984Z,6.92
2019-05-30T18:00:13.980Z,6.53
2019-05-30T18:02:42.609Z,4.90
2019-05-30T18:05:13.432Z,4.87
2019-05-30T18:07:42.195Z,4.87
2019-05-30T18:10:13.656Z,7.92
2019-05-30T18:12:42.445Z,6.55
2019-05-30T18:15:13.384Z,8.65
2019-05-30T18:17:41.811Z,6.83
2019-05-30T18:20:11.303Z,7.40
2019-05-30T18:22:41.909Z,6.80
2019-05-30T18:25:11.861Z,10.65
2019-05-30T18:27:40.300Z,9.85
2019-05-30T18:30:10.124Z,5.25
2019-05-30T18:32:38.560Z,5.70
2019-05-30T18:35:07.778Z,5.33
2019-05-30T18:37:37.552Z,5.83
2019-05-30T18:40:10.388Z,5.87
2019-05-30T18:42:38.852Z,7.72
2019-05-30T18:45:12.725Z,5.53
2019-05-30T18:47:42.183Z,5.33
2019-05-30T18:50:11.033Z,5.05
2019-05-30T18:52:39.464Z,5.15
2019-05-30T18:55:08.440Z,5.45
2019-05-30T18:57:37.408Z,5.00
2019-05-30T19:00:25.541Z,4.97
2019-05-30T19:02:54.960Z,5.90
2019-05-30T19:05:24.452Z,5.92
2019-05-30T19:07:53.329Z,6.08
2019-05-30T19:10:22.687Z,9.98
2019-05-30T19:12:51.133Z,9.75
2019-05-30T19:15:19.924Z,9.60
2019-05-30T19:17:48.424Z,9.95
2019-05-30T19:20:18.688Z,7.60
2019-05-30T19:22:54.837Z,5.90
2019-05-30T19:25:23.677Z,5.42
2019-05-30T19:27:52.104Z,4.87
2019-05-30T19:30:20.992Z,5.00
2019-05-30T19:32:49.417Z,5.45
2019-05-30T19:35:18.524Z,5.80
2019-05-30T19:37:47.398Z,5.08
2019-05-30T19:40:17.466Z,4.70
2019-05-30T19:42:45.908Z,5.30
2019-05-30T19:45:16.348Z,5.42
2019-05-30T19:47:45.707Z,6.15
2019-05-30T19:50:16.396Z,5.97
2019-05-30T19:52:46.867Z,5.83
2019-05-30T19:55:15.481Z,6.92
2019-05-30T19:57:43.911Z,6.85
2019-05-30T20:00:14.112Z,8.10
2019-05-30T20:02:42.558Z,7.87
2019-05-30T20:05:12.600Z,8.05
2019-05-30T20:07:41.355Z,7.70
2019-05-30T20:10:11.669Z,6.70
2019-05-30T20:12:41.084Z,6.85
2019-05-30T20:15:11.971Z,7.05
2019-05-30T20:17:41.882Z,7.03
2019-05-30T20:20:11.325Z,8.33
2019-05-30T20:22:40.198Z,7.65
2019-05-30T20:25:09.936Z,7.80
2019-05-30T20:27:39.071Z,7.12
2019-05-30T20:30:10.170Z,7.53
2019-05-30T20:32:38.979Z,7.62
2019-05-30T20:35:08.069Z,8.23
2019-05-30T20:37:36.843Z,8.25
2019-05-30T20:40:07.269Z,7.65
2019-05-30T20:42:36.701Z,8.58
2019-05-30T20:45:10.232Z,8.73
2019-05-30T20:47:40.809Z,8.38
2019-05-30T20:50:12.864Z,8.15
2019-05-30T20:52:45.293Z,8.80
2019-05-30T20:55:13.313Z,8.30
2019-05-30T20:57:42.542Z,8.65
2019-05-30T21:00:13.155Z,8.80
2019-05-30T21:02:43.512Z,8.65
2019-05-30T21:05:13.914Z,8.95
2019-05-30T21:07:44.316Z,9.03
2019-05-30T21:10:15.230Z,10.65
2019-05-30T21:12:48.973Z,9.10
2019-05-30T21:15:17.387Z,9.10
2019-05-30T21:17:47.058Z,9.03
2019-05-30T21:20:16.078Z,11.88
2019-05-30T21:22:44.824Z,14.47
2019-05-30T21:25:14.202Z,10.25
2019-05-30T21:27:42.974Z,10.30
2019-05-30T21:30:12.324Z,9.90
2019-05-30T21:32:42.079Z,9.28
2019-05-30T21:35:11.717Z,9.53
2019-05-30T21:37:41.739Z,9.83
2019-05-30T21:40:10.864Z,10.18
2019-05-30T21:42:55.673Z,12.45
2019-05-30T21:45:09.808Z,11.00
2019-05-30T21:47:38.762Z,10.25
2019-05-30T21:50:09.048Z,9.53
2019-05-30T21:52:37.750Z,10.55
2019-05-30T21:55:07.698Z,14.03
2019-05-30T21:57:36.405Z,12.10
2019-05-30T22:00:15.736Z,10.70
2019-05-30T22:02:53.352Z,9.33
2019-05-30T22:05:22.261Z,12.33
2019-05-30T22:07:51.234Z,14.55
2019-05-30T22:10:19.804Z,12.60
2019-05-30T22:12:48.252Z,10.60
2019-05-30T22:15:17.030Z,10.28
2019-05-30T22:17:45.806Z,11.12
2019-05-30T22:20:14.873Z,10.00
2019-05-30T22:22:43.888Z,10.38
2019-05-30T22:25:33.385Z,10.32
2019-05-30T22:28:01.816Z,13.90
2019-05-30T22:30:52.853Z,11.83
2019-05-30T22:33:21.715Z,11.70
2019-05-30T22:35:50.998Z,11.95
2019-05-30T22:38:19.486Z,10.63
2019-05-30T22:40:47.976Z,10.82
2019-05-30T22:43:24.795Z,11.45
2019-05-30T22:45:46.652Z,11.90
2019-05-30T22:48:15.369Z,11.60
2019-05-30T22:50:44.745Z,11.05
2019-05-30T22:53:13.223Z,12.13
2019-05-30T22:55:41.643Z,12.05
2019-05-30T22:58:10.079Z,11.88
2019-05-30T23:00:38.839Z,10.95
2019-05-30T23:03:07.297Z,11.50
2019-05-30T23:05:37.771Z,11.55
2019-05-30T23:08:06.228Z,11.55
2019-05-30T23:10:36.622Z,11.73
2019-05-30T23:13:11.432Z,12.15
2019-05-30T23:15:39.924Z,13.62
2019-05-30T23:18:08.364Z,12.07
2019-05-30T23:20:36.832Z,12.18
2019-05-30T23:23:05.344Z,12.80
2019-05-30T23:25:33.767Z,11.57
2019-05-30T23:28:02.228Z,11.45
2019-05-30T23:30:32.840Z,11.35
2019-05-30T23:33:01.276Z,11.60
2019-05-30T23:35:29.992Z,11.50
2019-05-30T23:37:58.842Z,12.50
2019-05-30T23:40:27.453Z,12.40
2019-05-30T23:42:57.136Z,13.48
2019-05-30T23:45:26.672Z,14.93
2019-05-30T23:47:55.542Z,16.55
2019-05-30T23:50:24.413Z,19.00
2019-05-30T23:52:53.983Z,20.92
2019-05-30T23:55:23.012Z,22.48
2019-05-30T23:57:58.638Z,24.27
